Time;durP1;ratioP1;P1;durP2;ratioP2;P2;SDS_P1;SDS_P2;PMS_P1;PMS_P2;Temp;Humidity;BMP_temperature;BMP_pressure;BME280_temperature;BME280_humidity;BME280_pressure;Samples;Min_cycle;Max_cycle;Signal;HPM_P1;HPM_P2
2022/12/24 00:02:20;;;;;;;4.83;1.77;;;;;;;12.12;100.00;99779.81;5016590;28;21303;-72
2022/12/24 00:04:45;;;;;;;5.37;2.17;;;;;;;12.13;100.00;99788.44;5014640;28;20724;-73
2022/12/24 00:07:11;;;;;;;6.03;2.23;;;;;;;12.11;100.00;99792.78;5020277;28;21196;-73
2022/12/24 00:09:36;;;;;;;5.63;2.27;;;;;;;12.12;100.00;99791.91;5019969;28;20191;-73
2022/12/24 00:12:02;;;;;;;6.10;2.47;;;;;;;12.10;100.00;99785.94;5021274;28;20213;-72
2022/12/24 00:14:27;;;;;;;7.17;2.60;;;;;;;12.11;100.00;99801.44;5019756;28;20854;-73
2022/12/24 00:16:53;;;;;;;4.87;2.50;;;;;;;12.09;100.00;99790.25;5022981;28;20268;-73
2022/12/24 00:19:18;;;;;;;6.20;2.50;;;;;;;12.07;100.00;99788.59;5023410;28;20193;-73
2022/12/24 00:21:43;;;;;;;8.10;2.53;;;;;;;12.06;100.00;99782.53;5021422;28;21070;-72
2022/12/24 00:24:09;;;;;;;7.67;2.57;;;;;;;12.08;100.00;99808.47;5020845;28;20209;-73
2022/12/24 00:26:34;;;;;;;7.10;2.37;;;;;;;12.07;100.00;99801.56;5016134;28;20842;-73
2022/12/24 00:29:00;;;;;;;6.00;2.17;;;;;;;12.03;100.00;99809.41;5018382;28;20193;-73
2022/12/24 00:31:25;;;;;;;5.13;2.27;;;;;;;12.00;100.00;99811.22;5019330;28;20224;-72
2022/12/24 00:33:50;;;;;;;4.27;2.00;;;;;;;11.96;100.00;99799.16;5019394;28;20180;-72
2022/12/24 00:36:17;;;;;;;4.07;1.77;;;;;;;11.91;100.00;99804.47;5018285;28;20299;-72
2022/12/24 00:38:43;;;;;;;4.27;1.87;;;;;;;11.85;100.00;99822.75;5016652;28;20280;-72
2022/12/24 00:41:23;;;;;;;5.77;2.07;;;;;;;11.82;100.00;99840.94;5019689;28;20564;-72
2022/12/24 00:43:53;;;;;;;6.40;2.17;;;;;;;11.75;100.00;99853.19;5014707;28;20209;-72
2022/12/24 00:46:18;;;;;;;6.83;2.60;;;;;;;11.70;100.00;99865.41;5016052;28;20313;-73
2022/12/24 00:48:43;;;;;;;6.57;2.60;;;;;;;11.65;100.00;99854.28;5015551;28;20295;-73
2022/12/24 00:51:09;;;;;;;7.20;2.47;;;;;;;11.54;100.00;99873.50;5016163;28;20194;-72
2022/12/24 00:53:34;;;;;;;7.10;2.40;;;;;;;11.47;100.00;99877.06;5019643;28;20557;-73
2022/12/24 00:55:59;;;;;;;5.03;2.10;;;;;;;11.41;100.00;99884.97;5012655;28;20205;-73
2022/12/24 00:58:25;;;;;;;5.20;2.20;;;;;;;11.36;100.00;99881.59;5015413;28;20990;-73
2022/12/24 01:00:50;;;;;;;4.67;1.80;;;;;;;11.32;100.00;99885.13;5025662;28;20569;-73
2022/12/24 01:03:15;;;;;;;4.07;1.60;;;;;;;11.27;100.00;99901.59;5020356;28;20212;-72
2022/12/24 01:05:41;;;;;;;5.37;1.70;;;;;;;11.24;100.00;99895.63;5019364;28;20248;-73
2022/12/24 01:08:06;;;;;;;4.70;1.80;;;;;;;11.21;100.00;99904.31;5018455;28;20197;-73
2022/12/24 01:10:31;;;;;;;4.30;1.90;;;;;;;11.18;100.00;99896.59;5017685;28;20196;-73
2022/12/24 01:13:01;;;;;;;4.17;1.70;;;;;;;11.17;100.00;99896.63;5016871;28;20658;-72
2022/12/24 01:15:27;;;;;;;3.77;1.77;;;;;;;11.13;100.00;99912.22;5017683;28;20206;-73
2022/12/24 01:17:52;;;;;;;4.07;1.90;;;;;;;11.09;100.00;99918.34;5017879;28;20197;-73
2022/12/24 01:20:17;;;;;;;4.30;1.80;;;;;;;11.06;100.00;99896.81;5019288;28;20188;-72
2022/12/24 01:22:43;;;;;;;2.97;1.60;;;;;;;11.02;100.00;99900.34;5017743;28;20236;-72
2022/12/24 01:25:09;;;;;;;4.60;1.90;;;;;;;10.94;100.00;99909.09;5016943;28;20259;-72
2022/12/24 01:27:34;;;;;;;4.33;1.80;;;;;;;10.88;100.00;99910.94;5015786;28;20193;-74
2022/12/24 01:30:00;;;;;;;4.10;2.00;;;;;;;10.82;100.00;99922.22;5015826;28;20193;-73
2022/12/24 01:32:25;;;;;;;3.80;1.70;;;;;;;10.77;100.00;99937.00;5016786;28;20735;-72
2022/12/24 01:34:50;;;;;;;4.27;1.70;;;;;;;10.72;100.00;99939.66;5018315;28;20267;-71
2022/12/24 01:37:15;;;;;;;3.90;1.80;;;;;;;10.71;100.00;99947.41;5018000;28;20181;-73
2022/12/24 01:39:41;;;;;;;5.23;1.87;;;;;;;10.70;100.00;99948.28;5016097;28;21283;-72
2022/12/24 01:45:39;;;;;;;3.83;1.93;;;;;;;10.70;100.00;99953.47;5015929;28;20311;-72
2022/12/24 01:48:08;;;;;;;5.00;1.73;;;;;;;10.66;100.00;99966.44;5017369;28;20202;-72
2022/12/24 01:50:34;;;;;;;3.73;1.67;;;;;;;10.61;100.00;99964.81;5016438;28;20217;-74
2022/12/24 01:52:59;;;;;;;4.70;2.00;;;;;;;10.51;100.00;99964.13;5014774;28;20276;-73
2022/12/24 01:55:25;;;;;;;4.77;2.10;;;;;;;10.40;100.00;99965.97;5012257;28;20290;-73
2022/12/24 01:57:56;;;;;;;5.07;2.13;;;;;;;10.26;100.00;99954.03;5013426;28;20267;-73
2022/12/24 02:00:22;;;;;;;5.30;2.40;;;;;;;10.13;100.00;99949.91;5017481;28;20227;-73
2022/12/24 02:02:50;;;;;;;9.30;3.07;;;;;;;10.03;100.00;99955.19;5012956;28;20287;-73
2022/12/24 02:05:15;;;;;;;9.57;2.77;;;;;;;9.98;100.00;99964.72;5015184;28;20209;-73
2022/12/24 02:07:41;;;;;;;6.97;3.07;;;;;;;9.98;100.00;99954.41;5024705;28;20202;-72
2022/12/24 02:10:09;;;;;;;6.67;2.70;;;;;;;10.00;100.00;99957.81;5023171;28;20188;-73
2022/12/24 02:12:36;;;;;;;8.17;2.67;;;;;;;10.04;100.00;99956.03;5019969;28;20180;-72
2022/12/24 02:15:03;;;;;;;7.47;3.20;;;;;;;10.09;100.00;99951.69;5018365;28;20902;-74
2022/12/24 02:17:57;;;;;;;10.17;3.20;;;;;;;10.12;100.00;99955.94;5018551;28;20193;-73
2022/12/24 02:20:40;;;;;;;8.43;3.10;;;;;;;10.13;100.00;99957.66;5003185;28;20225;-73
2022/12/24 02:23:17;;;;;;;6.80;2.73;;;;;;;10.15;100.00;99946.41;5018033;28;20197;-73
2022/12/24 02:26:01;;;;;;;8.87;3.40;;;;;;;10.17;100.00;99947.25;5020348;28;20737;-74
2022/12/24 02:28:41;;;;;;;6.50;2.80;;;;;;;10.19;100.00;99955.84;5021841;28;20190;-73
2022/12/24 02:31:21;;;;;;;8.23;3.00;;;;;;;10.23;100.00;99956.66;5023855;28;20242;-74
2022/12/24 02:34:01;;;;;;;9.57;3.10;;;;;;;10.24;100.00;99955.78;5023388;28;20594;-73
2022/12/24 02:36:34;;;;;;;8.00;3.50;;;;;;;10.27;100.00;99965.25;5023207;28;20298;-73
2022/12/24 02:39:04;;;;;;;10.23;3.93;;;;;;;10.27;100.00;99957.50;5022624;28;20321;-73
2022/12/24 02:44:21;;;;;;;8.40;3.60;;;;;;;10.26;100.00;99954.03;5021767;28;20755;-75
2022/12/24 02:46:48;;;;;;;8.17;3.00;;;;;;;10.26;100.00;99966.13;5021503;28;20213;-72
2022/12/24 02:49:13;;;;;;;8.60;2.90;;;;;;;10.27;100.00;99971.28;5004495;28;20201;-73
2022/12/24 02:51:39;;;;;;;8.20;2.87;;;;;;;10.28;100.00;99964.38;5022691;28;20200;-74
2022/12/24 02:54:05;;;;;;;6.97;2.67;;;;;;;10.29;100.00;99959.19;5020041;28;20186;-73
2022/12/24 02:57:02;;;;;;;5.07;2.43;;;;;;;10.34;100.00;99967.75;5020492;28;20814;-73
2022/12/24 02:59:39;;;;;;;6.73;2.13;;;;;;;10.36;100.00;99965.97;5020668;28;20180;-72
2022/12/24 03:02:13;;;;;;;5.87;2.47;;;;;;;10.40;100.00;99968.56;5017369;28;20188;-75
2022/12/24 03:04:55;;;;;;;7.63;2.60;;;;;;;10.41;100.00;99962.50;5031758;28;20211;-73
2022/12/24 03:07:28;;;;;;;5.63;2.60;;;;;;;10.41;100.00;99976.31;5017108;28;20204;-75
2022/12/24 03:10:12;;;;;;;5.87;2.43;;;;;;;10.45;100.00;99985.72;5021015;28;20279;-73
2022/12/24 03:12:42;;;;;;;6.50;2.20;;;;;;;10.48;100.00;99990.88;5018765;28;20976;-73
2022/12/24 03:15:12;;;;;;;4.20;1.97;;;;;;;10.50;100.00;99990.84;5018413;28;20216;-73
2022/12/24 03:17:40;;;;;;;4.90;2.10;;;;;;;10.53;100.00;99980.44;5021500;28;20181;-72
2022/12/24 03:20:08;;;;;;;5.37;2.20;;;;;;;10.57;100.00;99976.09;5005997;28;20216;-73
2022/12/24 03:22:35;;;;;;;5.67;2.37;;;;;;;10.60;100.00;99981.22;5020699;28;20263;-73
2022/12/24 03:25:00;;;;;;;5.30;2.50;;;;;;;10.62;100.00;99974.28;5023106;28;20219;-73
2022/12/24 03:27:29;;;;;;;4.30;2.10;;;;;;;10.62;100.00;99980.34;5022167;28;20198;-73
2022/12/24 03:29:55;;;;;;;5.13;2.07;;;;;;;10.62;100.00;99990.69;5037220;28;20190;-75
2022/12/24 03:32:27;;;;;;;5.10;2.30;;;;;;;10.63;100.00;99994.13;5020286;28;20180;-73
2022/12/24 03:34:52;;;;;;;6.67;2.40;;;;;;;10.64;100.00;99999.28;5015166;28;20187;-74
2022/12/24 03:37:18;;;;;;;7.57;2.90;;;;;;;10.63;100.00;99989.81;4998524;28;20557;-74
2022/12/24 03:39:44;;;;;;;4.33;2.13;;;;;;;10.62;100.00;99993.28;5013735;28;20674;-74
2022/12/24 03:42:09;;;;;;;8.00;2.70;;;;;;;10.62;100.00;99992.41;5016711;28;20200;-73
2022/12/24 03:44:34;;;;;;;6.53;2.43;;;;;;;10.59;100.00;99997.66;5017390;28;20205;-75
2022/12/24 03:47:00;;;;;;;6.37;2.73;;;;;;;10.57;100.00;100009.75;5017106;28;20244;-74
2022/12/24 03:49:25;;;;;;;6.30;2.70;;;;;;;10.54;100.00;100015.78;5018890;28;20219;-73
2022/12/24 03:51:50;;;;;;;3.73;2.20;;;;;;;10.52;100.00;100013.25;5021183;28;20207;-72
2022/12/24 03:54:16;;;;;;;4.97;2.13;;;;;;;10.49;100.00;100007.25;5019643;28;20183;-73
2022/12/24 03:56:41;;;;;;;5.83;2.40;;;;;;;10.46;100.00;100010.72;5020015;28;20861;-73
2022/12/24 03:59:06;;;;;;;7.20;2.97;;;;;;;10.42;100.00;100011.66;5017214;28;20245;-74
2022/12/24 04:01:32;;;;;;;5.40;2.90;;;;;;;10.39;100.00;100022.03;5014299;28;20195;-75
2022/12/24 04:03:57;;;;;;;6.80;2.47;;;;;;;10.34;100.00;100022.06;5015849;28;20303;-73
2022/12/24 04:06:22;;;;;;;5.97;2.53;;;;;;;10.30;100.00;100017.78;5017014;28;20200;-73
2022/12/24 04:08:48;;;;;;;7.77;3.07;;;;;;;10.25;100.00;100029.91;5018688;28;20282;-75
2022/12/24 04:11:15;;;;;;;8.00;3.17;;;;;;;10.22;100.00;100041.16;5021017;28;20214;-73
2022/12/24 04:13:40;;;;;;;9.60;3.27;;;;;;;10.16;100.00;100030.88;5020658;28;20188;-73
2022/12/24 04:16:11;;;;;;;4.87;2.03;;;;;;;10.12;100.00;100036.97;5021051;28;20208;-73
2022/12/24 04:18:37;;;;;;;6.90;3.23;;;;;;;10.08;100.00;100024.94;5023191;28;20673;-73
2022/12/24 04:21:04;;;;;;;7.97;3.43;;;;;;;10.06;100.00;100039.63;5022046;28;20184;-74
2022/12/24 04:23:32;;;;;;;5.27;3.23;;;;;;;10.05;100.00;100043.94;5024203;28;20734;-73
2022/12/24 04:26:04;;;;;;;6.37;3.10;;;;;;;10.05;100.00;100040.50;5025322;28;20213;-74
2022/12/24 04:28:31;;;;;;;6.07;3.23;;;;;;;10.04;100.00;100041.38;5024368;28;20193;-73
2022/12/24 04:30:58;;;;;;;8.30;3.30;;;;;;;10.03;100.00;100048.28;5023069;28;20224;-73
2022/12/24 04:33:23;;;;;;;6.93;3.10;;;;;;;10.00;100.00;100052.59;5021924;28;20530;-73
2022/12/24 04:35:49;;;;;;;5.27;2.50;;;;;;;9.98;100.00;100039.69;5038371;28;20220;-73
2022/12/24 04:38:14;;;;;;;7.47;2.93;;;;;;;9.96;100.00;100044.03;5020356;28;20188;-72
2022/12/24 04:40:39;;;;;;;8.77;2.87;;;;;;;9.93;100.00;100044.06;5019770;28;20193;-74
2022/12/24 04:43:05;;;;;;;7.57;3.23;;;;;;;9.93;100.00;100062.16;5017032;28;20207;-73
2022/12/24 04:45:30;;;;;;;6.73;3.37;;;;;;;9.93;100.00;100075.06;5013801;28;22201;-73
2022/12/24 04:47:56;;;;;;;11.83;3.70;;;;;;;9.96;100.00;100076.78;5019327;28;20307;-73
2022/12/24 04:50:21;;;;;;;8.50;3.00;;;;;;;9.96;100.00;100081.97;5017212;28;20286;-73
2022/12/24 04:52:46;;;;;;;6.20;2.67;;;;;;;9.98;100.00;100090.56;5018022;28;20361;-73
2022/12/24 04:55:12;;;;;;;5.50;2.60;;;;;;;9.98;100.00;100067.28;5016052;28;20254;-73
2022/12/24 04:57:37;;;;;;;6.33;2.47;;;;;;;9.99;100.00;100081.91;5019191;28;20850;-72
2022/12/24 05:00:07;;;;;;;5.93;2.50;;;;;;;9.97;100.00;100073.34;5021082;28;20269;-73
2022/12/24 05:02:32;;;;;;;6.97;2.50;;;;;;;9.95;100.00;100078.50;5020108;28;20191;-73
2022/12/24 05:04:57;;;;;;;7.40;2.80;;;;;;;9.93;100.00;100079.41;5018830;28;21015;-73
2022/12/24 05:07:23;;;;;;;9.60;3.20;;;;;;;9.91;100.00;100088.03;5015731;28;20189;-74
2022/12/24 05:09:48;;;;;;;9.20;2.97;;;;;;;9.88;100.00;100069.13;5017277;28;20258;-73
2022/12/24 05:12:13;;;;;;;8.63;3.23;;;;;;;9.89;100.00;100068.25;5016844;28;20725;-72
2022/12/24 05:14:39;;;;;;;9.83;3.00;;;;;;;9.83;100.00;100074.31;5011956;28;20686;-73
2022/12/24 05:17:05;;;;;;;8.43;2.90;;;;;;;9.83;100.00;100071.72;5019497;28;20211;-73
2022/12/24 05:19:30;;;;;;;8.07;3.00;;;;;;;9.83;100.00;100063.13;5001858;28;20683;-74
2022/12/24 05:27:24;;;;;;;6.37;2.33;;;;;;;9.84;100.00;100068.25;5015737;28;20193;-73
2022/12/24 05:29:49;;;;;;;7.97;2.77;;;;;;;9.82;100.00;100061.41;5016470;28;20184;-73
2022/12/24 05:32:14;;;;;;;6.70;2.87;;;;;;;9.81;100.00;100059.69;5015818;28;20192;-73
2022/12/24 05:34:39;;;;;;;6.90;2.57;;;;;;;9.79;100.00;100070.06;5018786;28;20188;-73
2022/12/24 05:37:05;;;;;;;8.60;2.63;;;;;;;9.78;100.00;100070.91;5015634;28;20783;-74
2022/12/24 05:39:30;;;;;;;6.30;2.23;;;;;;;9.77;100.00;100074.38;5016477;28;20186;-73
2022/12/24 05:41:55;;;;;;;5.33;1.97;;;;;;;9.78;100.00;100076.09;5016571;28;20208;-73
2022/12/24 05:44:21;;;;;;;5.17;2.10;;;;;;;9.81;100.00;100070.03;5018114;28;20399;-74
2022/12/24 05:46:46;;;;;;;7.00;2.47;;;;;;;9.84;100.00;100070.84;5018097;28;20199;-73
2022/12/24 05:49:12;;;;;;;9.23;2.63;;;;;;;9.86;100.00;100055.34;5021475;28;20194;-73
2022/12/24 05:51:39;;;;;;;8.40;2.73;;;;;;;9.89;100.00;100069.09;5020412;28;20254;-74
2022/12/24 05:54:05;;;;;;;7.10;2.43;;;;;;;9.93;100.00;100085.41;5021329;28;20730;-74
2022/12/24 05:56:30;;;;;;;5.37;2.20;;;;;;;9.97;100.00;100088.84;5021021;28;20215;-73
2022/12/24 05:58:56;;;;;;;7.43;2.43;;;;;;;9.99;100.00;100090.53;5016593;28;20259;-73
2022/12/24 06:01:22;;;;;;;6.03;2.40;;;;;;;10.02;100.00;100090.50;5021985;28;20196;-73
2022/12/24 06:03:50;;;;;;;7.63;2.43;;;;;;;10.06;100.00;100083.56;5018173;28;20203;-73
2022/12/24 06:06:24;;;;;;;7.43;2.30;;;;;;;10.10;100.00;100084.38;5020087;28;20237;-73
2022/12/24 06:08:51;;;;;;;6.87;2.70;;;;;;;10.13;100.00;100087.81;5020796;28;20185;-73
2022/12/24 06:11:19;;;;;;;9.33;3.20;;;;;;;10.17;100.00;100093.81;5023900;28;20686;-73
2022/12/24 06:13:44;;;;;;;9.43;3.57;;;;;;;10.21;100.00;100093.75;5020576;28;20898;-73
2022/12/24 06:16:15;;;;;;;7.20;2.90;;;;;;;10.25;100.00;100101.50;5021233;28;20203;-73
2022/12/24 06:18:41;;;;;;;6.73;2.70;;;;;;;10.27;100.00;100110.94;5025675;28;20213;-73
2022/12/24 06:21:07;;;;;;;7.03;2.80;;;;;;;10.28;100.00;100117.81;5027384;28;20248;-74
2022/12/24 06:23:35;;;;;;;7.13;2.90;;;;;;;10.30;100.00;100112.63;5026486;28;20210;-73
2022/12/24 06:26:02;;;;;;;5.60;2.30;;;;;;;10.31;100.00;100112.63;5024315;28;20242;-73
2022/12/24 06:28:29;;;;;;;5.73;2.17;;;;;;;10.32;100.00;100114.34;5004045;28;20180;-73
2022/12/24 06:30:55;;;;;;;7.50;2.57;;;;;;;10.33;100.00;100116.06;5025741;28;20999;-73
2022/12/24 06:33:20;;;;;;;7.77;2.70;;;;;;;10.33;100.00;100122.94;5021334;28;20195;-73
2022/12/24 06:35:46;;;;;;;6.77;2.43;;;;;;;10.29;100.00;100121.25;5031162;28;20209;-74
2022/12/24 06:38:12;;;;;;;5.13;2.33;;;;;;;10.26;100.00;100124.75;5030830;28;20283;-73
2022/12/24 06:40:38;;;;;;;6.67;2.53;;;;;;;10.26;100.00;100123.91;5017188;28;20727;-73
2022/12/24 06:43:03;;;;;;;6.63;2.80;;;;;;;10.27;100.00;100143.72;5017513;28;20179;-72
2022/12/24 06:45:29;;;;;;;6.73;2.37;;;;;;;10.26;100.00;100147.19;5019472;28;20788;-73
2022/12/24 06:47:54;;;;;;;7.20;2.77;;;;;;;10.26;100.00;100147.19;5018542;28;20759;-74
2022/12/24 06:50:20;;;;;;;7.73;2.83;;;;;;;10.25;100.00;100151.47;5021600;28;20177;-74
2022/12/24 06:52:46;;;;;;;5.57;2.43;;;;;;;10.24;100.00;100141.16;5016021;28;20203;-72
2022/12/24 06:55:11;;;;;;;6.50;2.37;;;;;;;10.20;100.00;100143.78;5019246;28;20188;-73
2022/12/24 06:57:36;;;;;;;4.97;2.10;;;;;;;10.18;100.00;100144.66;5018493;28;20197;-72
2022/12/24 07:00:02;;;;;;;5.20;2.43;;;;;;;10.17;100.00;100148.97;5022241;28;20540;-74
2022/12/24 07:02:27;;;;;;;5.77;2.10;;;;;;;10.16;100.00;100164.50;5020052;28;20588;-73
2022/12/24 07:04:53;;;;;;;5.70;2.07;;;;;;;10.14;100.00;100159.34;5019012;28;20207;-74
2022/12/24 07:07:18;;;;;;;5.37;2.20;;;;;;;10.12;100.00;100171.44;5016744;28;20556;-75
2022/12/24 07:09:43;;;;;;;7.23;2.53;;;;;;;10.08;100.00;100172.34;5018375;28;20694;-73
2022/12/24 07:12:09;;;;;;;7.07;1.80;;;;;;;10.06;100.00;100169.75;5016875;28;20183;-73
2022/12/24 07:14:34;;;;;;;7.40;2.50;;;;;;;10.05;100.00;100178.41;5022276;28;20211;-74
2022/12/24 07:16:59;;;;;;;6.60;2.30;;;;;;;10.07;100.00;100180.97;5023064;28;20200;-73
2022/12/24 07:19:25;;;;;;;6.67;2.40;;;;;;;10.09;100.00;100186.09;5019612;28;20664;-73
2022/12/24 07:21:50;;;;;;;6.63;2.30;;;;;;;10.11;100.00;100182.66;5022202;28;20190;-73
2022/12/24 07:24:16;;;;;;;5.83;2.13;;;;;;;10.12;100.00;100178.31;5020562;28;20216;-73
2022/12/24 07:26:41;;;;;;;6.00;2.40;;;;;;;10.15;100.00;100184.31;5020991;28;20207;-73
2022/12/24 07:29:07;;;;;;;6.63;2.37;;;;;;;10.18;100.00;100178.28;5020591;28;20186;-72
2022/12/24 07:31:32;;;;;;;6.17;2.47;;;;;;;10.22;100.00;100179.94;5026968;28;20234;-73
2022/12/24 07:33:58;;;;;;;8.03;2.80;;;;;;;10.21;100.00;100176.53;5018521;28;20768;-73
2022/12/24 07:36:24;;;;;;;7.23;2.90;;;;;;;10.24;100.00;100183.38;5017993;28;20762;-74
2022/12/24 07:38:50;;;;;;;7.87;2.03;;;;;;;10.25;100.00;100195.44;5018029;28;20547;-74
2022/12/24 07:41:15;;;;;;;6.40;2.27;;;;;;;10.27;100.00;100188.53;5021207;28;20223;-74
2022/12/24 07:43:40;;;;;;;8.37;2.93;;;;;;;10.29;100.00;100197.13;5014385;28;20290;-73
2022/12/24 07:46:06;;;;;;;7.13;2.60;;;;;;;10.29;100.00;100204.03;5014719;28;20204;-74
2022/12/24 07:48:32;;;;;;;8.53;2.60;;;;;;;10.27;100.00;100198.03;5014147;28;20197;-74
2022/12/24 07:50:58;;;;;;;6.93;2.90;;;;;;;10.23;100.00;100199.78;5019191;28;20810;-73
2022/12/24 07:53:24;;;;;;;6.17;2.80;;;;;;;10.19;100.00;100209.28;5013705;28;20194;-74
2022/12/24 07:55:50;;;;;;;6.07;2.60;;;;;;;10.19;100.00;100196.38;5018856;28;20216;-73
2022/12/24 07:58:15;;;;;;;7.93;2.90;;;;;;;10.18;100.00;100198.97;5016628;28;20876;-73
2022/12/24 08:00:41;;;;;;;8.23;3.10;;;;;;;10.19;100.00;100209.28;5017650;28;20187;-73
2022/12/24 08:03:06;;;;;;;6.63;2.60;;;;;;;10.22;100.00;100213.56;5012228;28;20245;-73
2022/12/24 08:05:35;;;;;;;6.47;2.50;;;;;;;10.26;100.00;100217.84;5020920;28;20216;-74
2022/12/24 08:08:01;;;;;;;4.93;2.17;;;;;;;10.29;100.00;100219.53;5019990;28;20177;-73
2022/12/24 08:10:26;;;;;;;6.60;2.33;;;;;;;10.32;100.00;100215.22;5019354;28;20244;-73
2022/12/24 08:12:51;;;;;;;8.63;2.93;;;;;;;10.34;100.00;100215.19;5023425;28;20193;-73
2022/12/24 08:15:17;;;;;;;7.43;3.23;;;;;;;10.35;100.00;100227.25;5022772;28;20230;-73
2022/12/24 08:17:43;;;;;;;6.10;2.30;;;;;;;10.36;100.00;100216.88;5022538;28;20853;-73
2022/12/24 08:20:10;;;;;;;8.73;3.17;;;;;;;10.39;100.00;100210.88;5022334;28;20190;-72
2022/12/24 08:22:35;;;;;;;6.20;3.17;;;;;;;10.45;100.00;100225.50;5020752;28;20196;-72
2022/12/24 08:25:00;;;;;;;5.07;2.30;;;;;;;10.47;100.00;100218.56;5018646;28;20605;-73
2022/12/24 08:27:26;;;;;;;6.93;2.70;;;;;;;10.53;100.00;100221.09;5022210;28;20887;-73
2022/12/24 08:29:51;;;;;;;4.70;2.50;;;;;;;10.56;100.00;100231.41;5023589;28;20193;-73
2022/12/24 08:32:17;;;;;;;6.87;2.40;;;;;;;10.58;100.00;100229.66;5020023;28;20271;-74
2022/12/24 08:34:42;;;;;;;6.30;2.60;;;;;;;10.58;100.00;100223.66;5019856;28;20495;-73
2022/12/24 08:37:07;;;;;;;7.10;2.40;;;;;;;10.58;100.00;100231.41;5022161;28;20222;-72
2022/12/24 08:39:33;;;;;;;6.27;2.50;;;;;;;10.59;100.00;100239.16;5020824;28;20190;-72
2022/12/24 08:41:58;;;;;;;5.90;2.20;;;;;;;10.61;100.00;100232.22;5015728;28;20256;-72
2022/12/24 08:44:23;;;;;;;5.20;2.27;;;;;;;10.63;100.00;100230.50;5020897;28;20251;-73
2022/12/24 08:46:49;;;;;;;6.00;2.47;;;;;;;10.65;100.00;100241.69;5019644;28;20287;-72
2022/12/24 08:49:14;;;;;;;6.00;2.47;;;;;;;10.65;100.00;100233.91;5023580;28;20194;-73
2022/12/24 08:51:40;;;;;;;5.57;2.43;;;;;;;10.66;100.00;100235.59;5020622;28;20183;-72
2022/12/24 08:54:05;;;;;;;5.70;2.20;;;;;;;10.68;100.00;100238.19;5017486;28;20239;-73
2022/12/24 08:56:30;;;;;;;4.23;2.13;;;;;;;10.68;100.00;100244.22;5016239;28;20210;-72
2022/12/24 08:58:56;;;;;;;5.67;2.57;;;;;;;10.68;100.00;100244.22;5032841;28;20191;-73
2022/12/24 09:01:21;;;;;;;4.60;2.07;;;;;;;10.69;100.00;100250.28;5022115;28;21015;-73
2022/12/24 09:03:47;;;;;;;6.43;2.37;;;;;;;10.70;100.00;100249.41;5019308;28;20584;-73
2022/12/24 09:06:12;;;;;;;6.73;3.00;;;;;;;10.72;100.00;100247.66;5013530;28;20220;-73
2022/12/24 09:08:38;;;;;;;4.00;1.80;;;;;;;10.73;100.00;100251.97;5013830;28;20190;-75
2022/12/24 09:11:03;;;;;;;4.47;2.17;;;;;;;10.77;100.00;100250.19;5014623;28;20544;-74
2022/12/24 09:13:29;;;;;;;5.23;2.43;;;;;;;10.80;100.00;100260.53;5017488;28;20696;-71
2022/12/24 09:15:54;;;;;;;5.80;2.90;;;;;;;10.84;100.00;100267.34;5017692;28;20223;-73
2022/12/24 09:18:20;;;;;;;8.60;4.10;;;;;;;10.90;100.00;100275.06;5020999;28;20191;-72
2022/12/24 09:20:45;;;;;;;5.83;4.20;;;;;;;10.95;100.00;100283.66;5017040;28;20187;-73
2022/12/24 09:23:10;;;;;;;8.13;4.33;;;;;;;11.01;100.00;100289.63;5012501;28;20188;-73
2022/12/24 09:25:43;;;;;;;7.67;4.23;;;;;;;11.03;100.00;100293.94;5000663;28;20217;-72
2022/12/24 09:28:08;;;;;;;6.93;4.10;;;;;;;11.04;100.00;100299.97;5018155;28;20249;-71
2022/12/24 09:30:35;;;;;;;7.30;3.50;;;;;;;11.04;100.00;100305.97;5011735;28;20180;-73
2022/12/24 09:33:00;;;;;;;5.27;2.77;;;;;;;11.05;100.00;100293.91;5019633;28;20273;-72
2022/12/24 09:35:25;;;;;;;5.53;2.63;;;;;;;11.04;100.00;100305.16;5021376;28;20902;-71
2022/12/24 09:38:01;;;;;;;8.43;3.03;;;;;;;11.04;100.00;100297.38;5017765;28;20187;-72
2022/12/24 09:40:36;;;;;;;9.53;3.50;;;;;;;11.01;100.00;100293.09;5016645;28;20221;-73
2022/12/24 09:43:11;;;;;;;7.23;3.70;;;;;;;10.98;100.00;100298.31;5014413;28;20600;-71
2022/12/24 09:45:40;;;;;;;8.00;4.00;;;;;;;10.92;100.00;100300.94;5016614;28;21033;-71
2022/12/24 09:48:15;;;;;;;7.83;3.53;;;;;;;10.89;100.00;100312.19;5017695;28;20212;-72
2022/12/24 09:50:51;;;;;;;5.23;2.77;;;;;;;10.91;100.00;100309.56;5008748;28;20278;-72
2022/12/24 09:53:24;;;;;;;7.67;2.80;;;;;;;10.93;100.00;100305.25;5012024;28;20992;-72
2022/12/24 09:56:00;;;;;;;7.57;2.93;;;;;;;10.93;100.00;100308.72;5013615;28;20207;-72
2022/12/24 09:58:28;;;;;;;5.23;2.70;;;;;;;10.95;100.00;100309.56;5019058;28;20201;-72
2022/12/24 10:00:55;;;;;;;6.43;2.93;;;;;;;11.01;100.00;100306.03;5016691;28;20205;-72
2022/12/24 10:03:21;;;;;;;6.60;2.80;;;;;;;11.07;100.00;100316.31;5015344;28;20621;-72
2022/12/24 10:05:55;;;;;;;5.57;2.40;;;;;;;11.10;100.00;100325.81;4999595;28;20236;-72
2022/12/24 10:09:00;;;;;;;7.07;2.63;;;;;;;11.10;100.00;100320.63;5016631;28;20215;-71
2022/12/24 10:11:59;;;;;;;7.33;2.80;;;;;;;11.10;100.00;100324.06;5017909;28;20184;-73
2022/12/24 10:14:43;;;;;;;8.07;3.00;;;;;;;11.14;100.00;100332.66;5010567;28;20223;-73
2022/12/24 10:17:14;;;;;;;5.87;2.67;;;;;;;11.16;100.00;100324.88;5014458;28;20216;-72
2022/12/24 10:19:48;;;;;;;6.33;3.07;;;;;;;11.15;100.00;100324.00;5016464;28;20741;-72
2022/12/24 10:22:31;;;;;;;6.93;3.13;;;;;;;11.23;100.00;100323.91;5013311;28;20715;-73
2022/12/24 10:24:56;;;;;;;6.33;3.03;;;;;;;11.30;100.00;100320.41;5017790;28;20379;-72
2022/12/24 10:27:29;;;;;;;6.03;3.20;;;;;;;11.31;100.00;100324.72;5015486;28;20198;-73
2022/12/24 10:30:00;;;;;;;6.40;3.27;;;;;;;11.28;100.00;100317.81;5018512;28;20733;-72
2022/12/24 10:32:30;;;;;;;7.47;2.87;;;;;;;11.25;100.00;100322.19;5024768;28;20181;-73
2022/12/24 10:35:21;;;;;;;7.70;3.33;;;;;;;11.30;100.00;100320.41;5023246;28;20193;-73
2022/12/24 10:37:48;;;;;;;5.40;2.73;;;;;;;11.43;100.00;100321.97;5018310;28;20201;-72
2022/12/24 10:40:38;;;;;;;7.13;3.03;;;;;;;11.68;100.00;100326.84;5020598;28;20192;-72
2022/12/24 10:43:20;;;;;;;6.10;2.33;;;;;;;11.89;100.00;100323.09;5020905;28;20189;-73
2022/12/24 10:45:53;;;;;;;5.83;2.70;;;;;;;12.07;100.00;100321.16;5019188;28;20218;-72
2022/12/24 10:48:28;;;;;;;6.53;2.80;;;;;;;12.19;100.00;100320.13;5018607;28;20292;-72
2022/12/24 10:51:02;;;;;;;5.50;2.57;;;;;;;12.21;100.00;100323.56;5037886;28;20816;-73
2022/12/24 10:53:42;;;;;;;6.20;3.00;;;;;;;12.19;100.00;100328.75;5020279;28;20183;-73
2022/12/24 10:56:11;;;;;;;6.20;2.73;;;;;;;12.12;100.00;100329.75;5020765;28;20644;-73
2022/12/24 10:58:43;;;;;;;4.87;3.37;;;;;;;12.06;100.00;100323.78;5023039;28;20209;-73
2022/12/24 11:01:09;;;;;;;7.10;3.40;;;;;;;11.99;100.00;100323.03;5029702;28;20613;-72
2022/12/24 11:03:36;;;;;;;6.47;3.67;;;;;;;11.94;100.00;100324.78;5024319;28;20209;-72
2022/12/24 11:06:11;;;;;;;8.63;4.33;;;;;;;11.92;100.00;100327.41;5040231;28;20248;-72
2022/12/24 11:08:39;;;;;;;7.00;4.50;;;;;;;11.87;100.00;100335.22;5018425;28;20189;-73
2022/12/24 11:11:12;;;;;;;8.70;6.03;;;;;;;11.82;100.00;100320.59;5022688;28;20869;-73
2022/12/24 11:13:43;;;;;;;9.73;5.90;;;;;;;11.74;100.00;100319.00;5023611;28;20203;-72
2022/12/24 11:16:35;;;;;;;7.50;5.43;;;;;;;11.68;100.00;100323.41;5021523;28;20272;-74
2022/12/24 11:19:03;;;;;;;10.97;5.77;;;;;;;11.64;100.00;100332.09;5025762;28;20671;-73
2022/12/24 11:21:36;;;;;;;8.17;4.67;;;;;;;11.61;100.00;100329.53;5031481;28;20193;-72
2022/12/24 11:24:11;;;;;;;7.80;4.40;;;;;;;11.57;100.00;100320.94;5025955;28;20740;-73
2022/12/24 11:26:36;;;;;;;7.93;4.70;;;;;;;11.50;100.00;100337.44;5025041;28;20678;-73
2022/12/24 11:29:26;;;;;;;7.17;4.70;;;;;;;11.41;100.00;100326.31;5025303;28;20221;-73
2022/12/24 11:32:09;;;;;;;7.47;5.20;;;;;;;11.34;100.00;100329.00;5019563;28;21114;-74
2022/12/24 11:34:35;;;;;;;5.93;4.33;;;;;;;11.26;100.00;100321.31;5026491;28;20182;-72
2022/12/24 11:37:29;;;;;;;9.30;4.47;;;;;;;11.25;100.00;100328.22;5024569;28;20216;-72
2022/12/24 11:39:59;;;;;;;6.30;4.10;;;;;;;11.23;100.00;100317.03;5013648;28;20203;-72